LHBD (Börgönd) - 119.550 - ALBA INFO - 01 LH, 19 RH - 10km SE Székesfehérvár - DROPZONE +3670624884

Szemezgessünk mi történt a korábbi években …

július 22, 2015

Tavaly …

Tavalyelőtt …

És azelőtt …

Posted in: Repülőnap 2015

Nem mindennapi ajánlat…

július 22, 2015

L29 Delfin, G-DELF …

egy újjáéledt legenda, aminek te is részese lehetsz …

Tököl – Börgönd útvonalon 2015.09.13.-án, 20 perc feledhetetlen élmény …

1 szabad hely o:) …

Érdeklődj itt: +36 30 959-8897

Posted in: Repülőnap 2015

Li2, Po2, Kánya, Cimbora

július 22, 2015

Idén is lesz szerencsénk a Goldtimer alapítvány jóvoltából ezeket az egyedülálló, csodálatos gépeket megcsodálnunk.

Sőt lehetőség lesz mindegyik géptípuson sétarepülésre is, garantáljuk a feledhetetlen élményt, amihez íme egy videó kedvcsinálóként.

Posted in: Repülőnap 2015

Repülőnap Börgöndön (2015.09.13)

július 22, 2015

Szervezés alatt az idei Repülőnap!

Az oldal folyamatosan frissül a programokkal, jelenleg még várjuk a repülőnapi programokban résztvevő kiállítók, egyesületek, vásározók jelentkezését az alábbi elérhetőségeken:

A repülőnap szervezői

Színpadi programok       30/927-6653

Földi bemutatók              30/956-2308

Ellátók vásározók            30/703-5898 

Posted in: Repülőnap 2015

Kapcsolat

Általános információk:
+36 30 959-8897
Színpadi programok:
+36 30 927-6653
Földi bemutatók:
+36 30 956-2308
Ellátók, vásározók:
+36 30 703-5898

Élőkép

Információk

Albatrosz Repülő Egyesület
8000 Székesfehérvár,
Radványi utca 6.

Adószám:
19092908-2-07

Bankszámla szám:
Budapest Bank
10102952-01361819-00000001

Telefon: +36 30 9598-897

Drop-Zone: +36 70 624-8884

Telephey: Börgönd repülőtér

Börgöndi repülõtér

LHBP METAR/TAF

[source: ADDS]
METAR
TAF LHBP 300500Z 3006/3106 32008KT CAVOK TEMPO 3006/3010 -RA BECMG 3019/3022 VRB03KT TAF
TAF LHBP 300500Z 3006/3106 32008KT CAVOK TEMPO 3006/3010 -RA BECMG 3019/3022 VRB03KT =
SR / SS: 03:25 / 18:23 UTC (Börgönd 2015-07-30)
Hungarian Chinese (Simplified) Croatian Czech English Finnish French German Hebrew Italian Japanese Polish Portuguese Romanian Russian Serbian Slovak Slovenian Spanish

Belépés tagoknak